Terminal Aerodrome Forecast
Issued by NWS

Home | Current Version | Previous Version | Text Only | Print | Product List | Glossary On
Versions: 1 2 3 4 5 6 7 8 9 10 11 12 13 14 15 16 17 18 19 20 21 22 23 24 25 26 27 28
167
FTUS45 KGJT 041132
TAFVEL
TAF
KVEL 041132Z 0412/0512 VRB03KT P6SM SCT200
     FM042000 VRB03KT P6SM BKN100
     FM051100 30005KT P6SM BKN100=

USA.gov is the U.S. government's official web portal to all federal, state and local government web resources and services.